Time;durP1;ratioP1;P1;durP2;ratioP2;P2;SDS_P1;SDS_P2;PMS_P1;PMS_P2;Temp;Humidity;BMP_temperature;BMP_pressure;BME280_temperature;BME280_humidity;BME280_pressure;Samples;Min_cycle;Max_cycle;Signal;HPM_P1;HPM_P2
2024/01/15 00:01:07;;;;;;;69.53;45.45;;;;;;;-1.65;100.00;99198.47;5608607;31;34466;-71
2024/01/15 00:04:10;;;;;;;70.47;44.22;;;;;;;-1.61;100.00;99181.69;5608213;31;35359;-71
2024/01/15 00:07:14;;;;;;;65.75;44.40;;;;;;;-1.59;100.00;99173.75;5608282;31;35152;-71
2024/01/15 00:10:18;;;;;;;65.15;44.05;;;;;;;-1.53;100.00;99163.69;5608562;31;34295;-71
2024/01/15 00:13:21;;;;;;;65.65;43.58;;;;;;;-1.57;100.00;99164.88;5608058;31;34277;-71
2024/01/15 00:16:24;;;;;;;63.60;42.62;;;;;;;-1.43;100.00;99171.59;5608234;31;34242;-71
2024/01/15 00:19:32;;;;;;;63.25;42.20;;;;;;;-1.45;100.00;99169.09;5608052;31;34346;-71
2024/01/15 00:22:35;;;;;;;67.07;43.10;;;;;;;-1.46;100.00;99156.25;5607970;31;34323;-71
2024/01/15 00:25:38;;;;;;;63.25;42.33;;;;;;;-1.46;100.00;99141.47;5608048;31;34409;-71
2024/01/15 00:28:41;;;;;;;65.70;42.95;;;;;;;-1.47;100.00;99141.59;5608047;31;34491;-71
2024/01/15 00:31:44;;;;;;;72.37;44.95;;;;;;;-1.45;100.00;99118.84;5607990;31;34279;-71
2024/01/15 00:34:47;;;;;;;64.80;44.00;;;;;;;-1.44;100.00;99116.16;5607983;31;35146;-72
2024/01/15 00:37:50;;;;;;;62.33;43.10;;;;;;;-1.39;100.00;99114.00;5608152;31;35111;-71
2024/01/15 00:40:53;;;;;;;66.03;43.70;;;;;;;-1.35;100.00;99110.19;5607853;31;34261;-71
2024/01/15 00:43:56;;;;;;;62.47;42.03;;;;;;;-1.26;100.00;99111.25;5607792;31;35147;-70
2024/01/15 00:46:59;;;;;;;67.00;42.65;;;;;;;-1.25;100.00;99125.06;5607688;31;34247;-70
2024/01/15 00:50:02;;;;;;;62.28;42.22;;;;;;;-1.17;100.00;99117.47;5607722;31;35086;-71
2024/01/15 00:53:06;;;;;;;63.85;41.75;;;;;;;-1.14;100.00;99127.62;5607855;31;34907;-70
2024/01/15 00:56:08;;;;;;;64.07;41.85;;;;;;;-1.13;100.00;99111.91;5606537;31;34388;-70
2024/01/15 00:59:14;;;;;;;60.85;40.47;;;;;;;-1.08;100.00;99106.31;5607373;31;35139;-72
2024/01/15 01:02:17;;;;;;;63.70;41.67;;;;;;;-1.08;100.00;99107.16;5607507;31;35051;-70
2024/01/15 01:05:21;;;;;;;58.10;40.17;;;;;;;-1.07;100.00;99100.16;5607356;31;35215;-70
2024/01/15 01:08:24;;;;;;;64.40;42.72;;;;;;;-1.22;100.00;99101.41;5607699;31;34693;-70
2024/01/15 01:11:27;;;;;;;64.95;42.47;;;;;;;-1.15;100.00;99099.94;5607264;31;35307;-70
2024/01/15 01:14:29;;;;;;;62.97;41.88;;;;;;;-1.14;100.00;99089.44;5607133;31;35045;-70
2024/01/15 01:17:32;;;;;;;67.82;43.63;;;;;;;-1.07;100.00;99080.19;5607109;31;34421;-70
2024/01/15 01:20:35;;;;;;;60.83;41.53;;;;;;;-1.18;100.00;99076.78;5607315;31;34625;-71
2024/01/15 01:23:39;;;;;;;61.97;41.53;;;;;;;-1.20;100.00;99073.47;5606891;31;34373;-70
2024/01/15 01:26:41;;;;;;;63.28;42.00;;;;;;;-1.16;100.00;99069.69;5607009;31;35087;-70
2024/01/15 01:29:44;;;;;;;65.00;44.22;;;;;;;-1.17;100.00;99063.66;5606910;31;34291;-70
2024/01/15 01:32:47;;;;;;;65.65;43.67;;;;;;;-1.23;100.00;99063.34;5607151;31;34327;-71
2024/01/15 01:35:50;;;;;;;62.22;43.72;;;;;;;-1.33;100.00;99058.88;5606092;31;35020;-71
2024/01/15 01:38:53;;;;;;;64.12;43.63;;;;;;;-1.28;100.00;99052.47;5606765;31;35296;-71
2024/01/15 01:41:56;;;;;;;63.53;44.05;;;;;;;-1.34;100.00;99044.22;5606731;31;34244;-71
2024/01/15 01:44:59;;;;;;;65.12;43.80;;;;;;;-1.37;100.00;99041.06;5605836;31;34393;-71
2024/01/15 01:48:04;;;;;;;65.45;45.12;;;;;;;-1.40;100.00;99036.91;5606615;31;34301;-71
2024/01/15 01:51:07;;;;;;;66.53;45.92;;;;;;;-1.43;100.00;99033.75;5606602;31;34336;-72
2024/01/15 01:54:13;;;;;;;67.53;45.88;;;;;;;-1.51;100.00;99028.34;5606520;31;34475;-71
2024/01/15 01:57:17;;;;;;;66.82;45.53;;;;;;;-1.58;100.00;99027.19;5606506;31;34357;-71
2024/01/15 02:00:22;;;;;;;72.03;47.88;;;;;;;-1.62;100.00;99020.59;5606507;31;34639;-71
2024/01/15 02:03:30;;;;;;;69.57;45.95;;;;;;;-1.66;100.00;99016.59;5606387;31;35236;-71
2024/01/15 02:06:33;;;;;;;66.65;46.22;;;;;;;-1.70;100.00;99008.22;5606624;31;35398;-71
2024/01/15 02:09:37;;;;;;;68.95;47.28;;;;;;;-1.80;100.00;99013.34;5607943;31;35154;-70
2024/01/15 02:12:40;;;;;;;68.32;47.22;;;;;;;-1.81;100.00;99000.44;5609312;31;35131;-71
2024/01/15 02:15:43;;;;;;;65.72;45.75;;;;;;;-1.92;100.00;98995.28;5609274;31;35071;-71
2024/01/15 02:18:46;;;;;;;69.95;47.33;;;;;;;-1.96;100.00;98993.88;5609267;31;34488;-71
2024/01/15 02:21:49;;;;;;;69.75;48.58;;;;;;;-2.10;100.00;99000.19;5609160;31;35051;-71
2024/01/15 02:24:53;;;;;;;69.03;47.38;;;;;;;-2.17;100.00;98992.97;5609238;31;34371;-70
2024/01/15 02:27:56;;;;;;;69.00;48.22;;;;;;;-2.19;100.00;99016.50;5609201;31;34428;-71
2024/01/15 02:30:59;;;;;;;70.57;48.90;;;;;;;-2.25;100.00;99004.81;5609505;31;34265;-72
2024/01/15 02:34:02;;;;;;;68.47;47.50;;;;;;;-2.38;100.00;99006.72;5609111;31;34251;-71
2024/01/15 02:37:05;;;;;;;69.37;48.40;;;;;;;-2.45;100.00;98996.94;5609142;31;34954;-72
2024/01/15 02:40:08;;;;;;;72.25;50.10;;;;;;;-2.32;100.00;98982.03;5609098;31;34274;-72
2024/01/15 02:43:12;;;;;;;71.55;49.83;;;;;;;-2.19;100.00;98964.53;5609276;31;34478;-71
2024/01/15 02:46:16;;;;;;;71.43;48.92;;;;;;;-2.25;100.00;98965.03;5609126;31;35689;-72
2024/01/15 02:49:18;;;;;;;69.43;48.70;;;;;;;-2.28;100.00;98966.09;5609160;31;35064;-72
2024/01/15 02:52:22;;;;;;;68.45;47.78;;;;;;;-2.23;100.00;98970.94;5609175;31;35032;-72
2024/01/15 02:55:24;;;;;;;68.15;49.25;;;;;;;-2.46;100.00;98983.12;5609112;31;35104;-72
2024/01/15 02:58:27;;;;;;;74.50;50.97;;;;;;;-2.59;100.00;98968.62;5609149;31;34621;-72
2024/01/15 03:01:30;;;;;;;71.87;50.42;;;;;;;-2.67;100.00;98966.63;5608933;31;34333;-71
2024/01/15 03:04:33;;;;;;;24.25;11.73;;;;;;;-2.74;100.00;98966.28;5608242;31;34406;-71
2024/01/15 03:07:36;;;;;;;74.20;51.63;;;;;;;-2.69;100.00;98968.50;5608891;31;34355;-70
2024/01/15 03:10:40;;;;;;;71.93;50.25;;;;;;;-2.63;100.00;98957.66;5608743;31;34513;-70
2024/01/15 03:13:42;;;;;;;76.47;51.50;;;;;;;-2.74;100.00;98955.88;5608571;31;34401;-70
2024/01/15 03:16:46;;;;;;;72.62;49.67;;;;;;;-2.85;100.00;98940.31;5609142;31;35290;-70
2024/01/15 03:19:49;;;;;;;73.22;50.22;;;;;;;-2.96;100.00;98926.53;5608023;31;34620;-70
2024/01/15 03:22:52;;;;;;;78.70;52.83;;;;;;;-3.02;100.00;98927.81;5608622;31;34015;-70
2024/01/15 03:25:56;;;;;;;75.50;51.20;;;;;;;-3.05;100.00;98922.88;5608640;31;34408;-70
2024/01/15 03:29:00;;;;;;;74.43;52.20;;;;;;;-3.03;100.00;98917.56;5608633;31;34687;-70
2024/01/15 03:32:03;;;;;;;23.33;11.85;;;;;;;-3.03;100.00;98922.75;5608595;31;34339;-71
2024/01/15 03:35:06;;;;;;;77.70;52.72;;;;;;;-3.02;100.00;98927.00;5608525;31;34596;-71
2024/01/15 03:38:09;;;;;;;78.40;53.50;;;;;;;-2.83;100.00;98924.63;5607872;31;34943;-71
2024/01/15 03:41:12;;;;;;;75.62;53.33;;;;;;;-2.77;100.00;98961.31;5608503;31;34440;-71
2024/01/15 03:44:15;;;;;;;79.68;53.25;;;;;;;-2.71;100.00;98937.47;5608446;31;34330;-71
2024/01/15 03:47:18;;;;;;;77.78;53.45;;;;;;;-2.69;100.00;98952.94;5608001;31;34617;-70
2024/01/15 03:50:21;;;;;;;75.25;51.95;;;;;;;-2.73;100.00;98967.09;5608409;31;34519;-72
2024/01/15 03:53:24;;;;;;;75.18;52.13;;;;;;;-2.79;100.00;98973.59;5608403;31;34298;-70
2024/01/15 03:56:26;;;;;;;78.90;52.88;;;;;;;-2.70;100.00;98951.28;5608376;31;35011;-71
2024/01/15 03:59:29;;;;;;;79.18;52.90;;;;;;;-2.73;100.00;98949.75;5608396;31;35075;-71
2024/01/15 04:02:32;;;;;;;83.10;56.40;;;;;;;-2.74;100.00;98965.44;5594811;31;34955;-70
2024/01/15 04:05:36;;;;;;;81.85;54.78;;;;;;;-2.77;100.00;98950.13;5608130;31;34367;-70
2024/01/15 04:08:38;;;;;;;77.78;52.70;;;;;;;-2.90;100.00;98939.00;5608170;31;34723;-70
2024/01/15 04:11:42;;;;;;;21.25;11.27;;;;;;;-3.02;100.00;98940.78;5608206;31;35559;-70
2024/01/15 04:14:44;;;;;;;80.95;54.45;;;;;;;-2.98;100.00;98949.16;5608093;31;35089;-70
2024/01/15 04:17:48;;;;;;;80.28;54.17;;;;;;;-3.07;100.00;98922.16;5603811;31;138738;-70
2024/01/15 04:20:50;;;;;;;21.85;11.57;;;;;;;-2.99;100.00;98921.56;5607970;31;34575;-70
2024/01/15 04:23:53;;;;;;;79.78;53.75;;;;;;;-3.21;100.00;98909.44;5608185;31;34247;-71
2024/01/15 04:26:56;;;;;;;80.72;53.17;;;;;;;-3.31;100.00;98913.66;5608098;31;35155;-71
2024/01/15 04:29:59;;;;;;;22.00;10.52;;;;;;;-3.40;100.00;98893.63;5608076;31;34281;-71
2024/01/15 04:33:04;;;;;;;85.38;56.70;;;;;;;-3.41;100.00;98907.53;5607834;31;35353;-71
2024/01/15 04:36:07;;;;;;;83.25;55.58;;;;;;;-3.48;100.00;98886.41;5608052;31;34860;-71
2024/01/15 04:39:11;;;;;;;15.90;9.15;;;;;;;-3.54;100.00;98892.91;5607173;31;35929;-71
2024/01/15 04:42:15;;;;;;;81.28;53.65;;;;;;;-3.60;100.00;98885.59;5607095;31;34537;-71
2024/01/15 04:45:18;;;;;;;82.65;56.47;;;;;;;-3.60;100.00;98910.66;5607730;31;35178;-70
2024/01/15 04:48:22;;;;;;;82.10;55.40;;;;;;;-3.68;100.00;98906.03;5607570;31;34360;-70
2024/01/15 04:51:25;;;;;;;18.42;9.82;;;;;;;-3.69;100.00;98895.81;5608079;31;34324;-70
2024/01/15 04:54:28;;;;;;;86.28;56.85;;;;;;;-3.72;100.00;98894.25;5607691;31;35124;-70
2024/01/15 04:57:32;;;;;;;82.35;57.35;;;;;;;-3.76;100.00;98892.00;5607551;31;34441;-70
2024/01/15 05:00:35;;;;;;;24.48;10.63;;;;;;;-3.80;100.00;98883.66;5607490;31;35068;-70
2024/01/15 05:03:37;;;;;;;83.35;56.88;;;;;;;-3.84;100.00;98882.25;5607426;31;34537;-69
2024/01/15 05:06:41;;;;;;;87.60;58.85;;;;;;;-3.75;100.00;98891.09;5607630;31;34263;-70
2024/01/15 05:09:45;;;;;;;21.77;11.45;;;;;;;-3.70;100.00;98907.94;5607262;31;34658;-70
2024/01/15 05:12:49;;;;;;;83.78;57.03;;;;;;;-3.72;100.00;98908.97;5607456;31;34474;-71
2024/01/15 05:15:52;;;;;;;21.10;8.90;;;;;;;-3.76;100.00;98908.38;5606978;31;34968;-70
2024/01/15 05:18:57;;;;;;;90.55;59.58;;;;;;;-3.63;100.00;98913.50;5606959;31;33124;-70
2024/01/15 05:22:00;;;;;;;90.95;58.63;;;;;;;-3.64;100.00;98917.88;5607163;31;34272;-70
2024/01/15 05:25:06;;;;;;;29.37;9.88;;;;;;;-3.68;100.00;98918.19;5606233;31;34472;-70
2024/01/15 05:28:10;;;;;;;93.50;60.15;;;;;;;-3.53;100.00;98919.63;5606296;31;34480;-70
2024/01/15 05:31:16;;;;;;;20.73;9.57;;;;;;;-3.65;100.00;98908.44;5606987;31;34329;-70
2024/01/15 05:34:20;;;;;;;93.85;59.72;;;;;;;-3.60;100.00;98910.66;5606819;31;34295;-71
2024/01/15 05:37:26;;;;;;;90.57;60.33;;;;;;;-3.48;100.00;98906.31;5606082;31;34276;-70
2024/01/15 05:40:29;;;;;;;27.27;11.45;;;;;;;-3.48;100.00;98911.50;5606739;31;34913;-70
2024/01/15 05:43:32;;;;;;;92.07;57.85;;;;;;;-3.46;100.00;98913.06;5608068;31;32728;-71
2024/01/15 05:46:35;;;;;;;90.20;58.53;;;;;;;-3.54;100.00;98925.78;5609531;31;34252;-71
2024/01/15 05:49:38;;;;;;;90.97;56.53;;;;;;;-3.65;100.00;98913.63;5609641;31;35001;-70
2024/01/15 05:52:41;;;;;;;89.50;59.85;;;;;;;-3.67;100.00;98922.41;5609685;31;35004;-70
2024/01/15 05:55:44;;;;;;;23.23;11.65;;;;;;;-3.71;100.00;98918.41;5609494;31;34314;-70
2024/01/15 05:58:47;;;;;;;96.80;62.65;;;;;;;-3.64;100.00;98920.44;5609433;31;34629;-70
2024/01/15 06:01:50;;;;;;;95.95;61.63;;;;;;;-3.44;100.00;98918.97;5608973;31;34463;-71
2024/01/15 06:04:56;;;;;;;30.05;12.02;;;;;;;-3.38;100.00;98915.06;5609596;31;34323;-71
2024/01/15 06:07:58;;;;;;;96.32;64.68;;;;;;;-3.42;100.00;98901.50;5609363;31;34380;-71
2024/01/15 06:11:03;;;;;;;94.97;62.83;;;;;;;-3.36;100.00;98882.06;5609376;31;35292;-71
2024/01/15 06:14:06;;;;;;;94.15;61.67;;;;;;;-3.19;100.00;98890.19;5609167;31;35083;-71
2024/01/15 06:17:09;;;;;;;89.25;63.17;;;;;;;-3.19;100.00;98885.00;5609078;31;34347;-71
2024/01/15 06:20:12;;;;;;;92.07;60.22;;;;;;;-3.18;100.00;98888.44;5608918;31;34324;-71
2024/01/15 06:23:16;;;;;;;92.45;62.17;;;;;;;-3.28;100.00;98897.84;5609465;31;33086;-71
2024/01/15 06:26:23;;;;;;;27.55;11.75;;;;;;;-3.33;100.00;98894.78;5608751;31;34493;-71
2024/01/15 06:29:29;;;;;;;89.13;60.90;;;;;;;-3.26;100.00;98909.78;5609013;31;34719;-71
2024/01/15 06:32:32;;;;;;;94.37;60.90;;;;;;;-3.22;100.00;98900.00;5608454;31;34435;-72
2024/01/15 06:35:35;;;;;;;89.40;61.97;;;;;;;-3.00;100.00;98894.78;5608843;31;34342;-72
2024/01/15 06:38:38;;;;;;;98.35;66.60;;;;;;;-2.87;100.00;98902.47;5608650;31;34351;-71
2024/01/15 06:41:45;;;;;;;33.30;13.30;;;;;;;-2.86;100.00;98902.34;5608918;31;35014;-71
2024/01/15 06:44:48;;;;;;;90.30;61.92;;;;;;;-2.78;100.00;98907.75;5608792;31;34357;-71
2024/01/15 06:47:52;;;;;;;92.93;60.38;;;;;;;-2.86;100.00;98907.53;5607881;31;34349;-71
2024/01/15 06:50:56;;;;;;;88.65;61.30;;;;;;;-2.79;100.00;98915.66;5608005;31;34407;-71
2024/01/15 06:53:59;;;;;;;87.32;59.63;;;;;;;-2.67;100.00;98910.34;5607499;31;34933;-73
2024/01/15 06:57:02;;;;;;;87.60;57.72;;;;;;;-2.54;100.00;98906.78;5608601;31;32899;-72
2024/01/15 07:00:08;;;;;;;87.60;58.33;;;;;;;-2.42;100.00;98903.22;5594905;31;32923;-73
2024/01/15 07:03:11;;;;;;;81.75;54.83;;;;;;;-2.33;100.00;98897.28;5607568;31;34378;-72
2024/01/15 07:06:14;;;;;;;82.37;56.22;;;;;;;-2.30;100.00;98902.22;5608779;31;34271;-72
2024/01/15 07:09:20;;;;;;;79.25;54.47;;;;;;;-2.32;100.00;98902.34;5609530;31;35493;-72
2024/01/15 07:12:23;;;;;;;77.47;53.00;;;;;;;-2.28;100.00;98905.53;5608941;31;34457;-72
2024/01/15 07:15:26;;;;;;;77.85;53.75;;;;;;;-2.30;100.00;98903.06;5608516;31;34378;-72
2024/01/15 07:18:29;;;;;;;79.60;53.45;;;;;;;-2.17;100.00;98900.28;5608721;31;34376;-73
2024/01/15 07:21:32;;;;;;;88.47;59.17;;;;;;;-2.14;100.00;98910.44;5608339;31;34272;-72
2024/01/15 07:24:36;;;;;;;88.45;59.63;;;;;;;-2.18;100.00;98924.63;5608602;31;34241;-72
2024/01/15 07:27:39;;;;;;;92.43;60.63;;;;;;;-2.26;100.00;98933.03;5608117;31;35433;-72
2024/01/15 07:30:42;;;;;;;93.25;62.70;;;;;;;-2.34;100.00;98935.41;5608463;31;34437;-72
2024/01/15 07:33:46;;;;;;;92.00;62.55;;;;;;;-2.30;100.00;98933.41;5607590;31;34498;-71
2024/01/15 07:36:49;;;;;;;92.60;64.30;;;;;;;-2.27;100.00;98939.16;5608162;31;34362;-71
2024/01/15 07:39:53;;;;;;;95.20;62.50;;;;;;;-2.28;100.00;98929.75;5608256;31;34562;-72
2024/01/15 07:42:56;;;;;;;88.22;60.15;;;;;;;-2.33;100.00;98938.84;5607476;31;34380;-73
2024/01/15 07:45:59;;;;;;;93.43;61.88;;;;;;;-2.50;100.00;98957.50;5607838;31;34400;-72
2024/01/15 07:49:03;;;;;;;34.28;14.80;;;;;;;-2.60;100.00;98947.03;5608065;31;34403;-72
2024/01/15 07:52:06;;;;;;;92.25;58.97;;;;;;;-2.67;100.00;98964.87;5608270;31;34303;-72
2024/01/15 07:55:10;;;;;;;88.97;59.95;;;;;;;-2.69;100.00;98958.13;5608208;31;34977;-72
2024/01/15 07:58:13;;;;;;;92.00;59.88;;;;;;;-2.71;100.00;98954.84;5607734;31;34345;-72
2024/01/15 08:01:18;;;;;;;89.13;60.08;;;;;;;-2.66;100.00;98953.50;5608727;31;34629;-72
2024/01/15 08:04:24;;;;;;;82.35;56.22;;;;;;;-2.58;100.00;98944.31;5608389;31;34329;-72
2024/01/15 08:07:28;;;;;;;82.25;53.87;;;;;;;-2.24;100.00;98931.16;5607779;31;35106;-72
2024/01/15 08:10:31;;;;;;;76.20;49.47;;;;;;;-2.03;100.00;98948.56;5608357;31;34269;-72
2024/01/15 08:13:33;;;;;;;72.97;49.45;;;;;;;-1.94;100.00;98940.84;5607422;31;35071;-72
2024/01/15 08:16:37;;;;;;;63.50;41.13;;;;;;;-1.83;100.00;98955.53;5608293;31;35085;-71
2024/01/15 08:19:41;;;;;;;51.00;33.95;;;;;;;-1.59;100.00;98950.94;5607984;31;34248;-71
2024/01/15 08:22:44;;;;;;;74.55;44.97;;;;;;;-1.24;100.00;98962.81;5608126;31;35114;-71
2024/01/15 08:25:47;;;;;;;50.92;32.15;;;;;;;-0.82;100.00;98961.78;5607892;31;34270;-71
2024/01/15 08:28:50;;;;;;;45.17;28.70;;;;;;;-0.64;100.00;98975.03;5608269;31;33743;-71
2024/01/15 08:31:53;;;;;;;48.25;31.73;;;;;;;-0.41;100.00;98963.47;5607570;31;34280;-70
2024/01/15 08:34:56;;;;;;;41.83;27.42;;;;;;;-0.42;100.00;98969.63;5607847;31;35756;-70
2024/01/15 08:37:59;;;;;;;37.58;25.92;;;;;;;-0.36;100.00;98963.06;5607766;31;34385;-71
2024/01/15 08:41:02;;;;;;;38.95;24.70;;;;;;;-0.19;100.00;98978.03;5608159;31;34354;-73
2024/01/15 08:44:05;;;;;;;34.47;24.05;;;;;;;0.03;100.00;98962.16;5607561;31;34409;-72
2024/01/15 08:47:08;;;;;;;36.25;23.25;;;;;;;0.24;100.00;98970.69;5607706;31;34371;-73
2024/01/15 08:50:10;;;;;;;36.90;23.17;;;;;;;0.39;100.00;98974.53;5607262;31;35359;-72
2024/01/15 08:53:14;;;;;;;48.87;22.55;;;;;;;0.42;100.00;98979.47;5607893;31;34315;-72
2024/01/15 08:56:17;;;;;;;33.95;23.50;;;;;;;0.57;100.00;98966.00;5606984;31;34386;-72
2024/01/15 08:59:24;;;;;;;36.95;22.77;;;;;;;0.74;100.00;98983.56;5607856;31;34360;-72
2024/01/15 09:02:27;;;;;;;35.78;22.02;;;;;;;0.79;100.00;98982.19;5607424;31;34276;-72
2024/01/15 09:05:30;;;;;;;33.70;22.20;;;;;;;0.73;100.00;98967.06;5607681;31;34993;-72
2024/01/15 09:08:33;;;;;;;32.15;22.10;;;;;;;0.78;100.00;98975.31;5607517;31;34422;-72
2024/01/15 09:11:36;;;;;;;40.08;22.00;;;;;;;0.78;100.00;98977.91;5607146;31;34311;-72
2024/01/15 09:14:39;;;;;;;29.90;19.98;;;;;;;0.88;100.00;98978.72;5607227;31;34309;-72
2024/01/15 09:17:43;;;;;;;28.60;20.27;;;;;;;0.92;100.00;98986.28;5607408;31;34418;-72
2024/01/15 09:20:46;;;;;;;29.50;20.08;;;;;;;1.09;100.00;98980.34;5609371;31;35419;-71
2024/01/15 09:23:48;;;;;;;36.85;21.00;;;;;;;1.03;100.00;98976.50;5609979;31;34389;-72
2024/01/15 09:26:51;;;;;;;29.08;18.25;;;;;;;1.15;100.00;98985.81;5609668;31;34288;-73
2024/01/15 09:29:54;;;;;;;26.60;18.17;;;;;;;1.20;100.00;98974.94;5610075;31;35027;-72
2024/01/15 09:32:58;;;;;;;26.37;17.25;;;;;;;1.29;100.00;98963.63;5608742;31;33520;-72
2024/01/15 09:36:03;;;;;;;27.75;18.23;;;;;;;1.33;100.00;98961.53;5609214;31;34406;-72
2024/01/15 09:39:08;;;;;;;26.60;16.80;;;;;;;1.31;100.00;98956.47;5608575;31;35044;-72
2024/01/15 09:42:11;;;;;;;25.90;17.45;;;;;;;1.38;100.00;98965.37;5609201;31;34274;-72
2024/01/15 09:45:15;;;;;;;29.05;16.98;;;;;;;1.37;100.00;98948.06;5608965;31;34339;-72
2024/01/15 09:48:19;;;;;;;27.20;16.25;;;;;;;1.37;100.00;98950.66;5609422;31;34504;-72
2024/01/15 09:51:22;;;;;;;24.50;14.15;;;;;;;1.54;100.00;98943.84;5608461;31;34758;-71
2024/01/15 09:54:26;;;;;;;25.85;14.50;;;;;;;1.53;100.00;98940.41;5609555;31;34373;-72
2024/01/15 09:57:29;;;;;;;21.70;13.35;;;;;;;1.61;100.00;98950.13;5609463;31;35088;-73
2024/01/15 10:00:33;;;;;;;22.70;13.43;;;;;;;1.71;100.00;98932.59;5609463;31;34338;-71
2024/01/15 10:03:38;;;;;;;21.23;13.70;;;;;;;1.85;100.00;98926.87;5609031;31;35177;-71
2024/01/15 10:06:46;;;;;;;21.42;12.48;;;;;;;1.90;100.00;98919.41;5609023;31;35335;-69
2024/01/15 10:09:49;;;;;;;28.45;12.65;;;;;;;2.02;100.00;98917.41;5608747;31;34577;-71
2024/01/15 10:12:52;;;;;;;24.15;12.27;;;;;;;2.04;100.00;98911.03;5609297;31;34849;-71
2024/01/15 10:15:58;;;;;;;19.90;12.80;;;;;;;2.03;100.00;98912.00;5608741;31;34291;-71
2024/01/15 10:19:01;;;;;;;21.90;12.77;;;;;;;2.17;100.00;98906.28;5609039;31;34399;-70
2024/01/15 10:22:08;;;;;;;21.37;11.85;;;;;;;2.37;100.00;98917.38;5608567;31;35004;-71
2024/01/15 10:25:12;;;;;;;17.77;10.90;;;;;;;2.48;98.08;98887.50;5609484;31;34409;-71
2024/01/15 10:28:18;;;;;;;18.37;10.88;;;;;;;2.54;93.86;98900.81;5609022;31;34298;-70
2024/01/15 10:31:22;;;;;;;20.02;10.88;;;;;;;2.55;91.93;98894.63;5608981;31;35444;-71
2024/01/15 10:34:30;;;;;;;17.00;10.75;;;;;;;2.51;91.64;98880.19;5608202;31;34487;-71
2024/01/15 10:37:33;;;;;;;17.65;10.13;;;;;;;2.59;92.27;98882.88;5609010;31;32823;-72
2024/01/15 10:40:36;;;;;;;21.30;11.48;;;;;;;2.62;90.00;98882.53;5608855;31;35021;-72
2024/01/15 10:43:42;;;;;;;17.52;10.18;;;;;;;2.77;89.71;98872.31;5612040;31;34301;-71
2024/01/15 10:46:47;;;;;;;19.12;9.57;;;;;;;2.81;88.48;98885.97;5609878;31;34361;-71
2024/01/15 10:49:53;;;;;;;16.55;10.27;;;;;;;2.71;89.23;98878.19;5608584;31;34314;-72
2024/01/15 10:52:57;;;;;;;15.48;10.32;;;;;;;2.73;90.91;98893.75;5609553;31;35070;-71
2024/01/15 10:56:01;;;;;;;18.65;10.13;;;;;;;2.59;92.66;98887.28;5610555;31;34033;-70
2024/01/15 10:59:04;;;;;;;15.60;8.98;;;;;;;2.69;92.71;98898.47;5609002;31;33666;-71
2024/01/15 11:02:14;;;;;;;16.30;9.50;;;;;;;2.80;91.24;98889.53;5608964;31;34282;-71
2024/01/15 11:05:22;;;;;;;15.68;9.15;;;;;;;2.81;91.10;98876.28;5609090;31;34363;-71
2024/01/15 11:08:26;;;;;;;14.15;8.95;;;;;;;2.84;90.17;98883.00;5609115;31;35074;-71
2024/01/15 11:11:29;;;;;;;14.57;9.02;;;;;;;2.94;89.61;98886.34;5609253;31;34999;-71
2024/01/15 11:14:45;;;;;;;14.13;8.93;;;;;;;3.01;89.39;98887.34;5609122;31;35032;-71
2024/01/15 11:18:03;;;;;;;13.62;8.32;;;;;;;3.21;89.14;98883.53;5609187;31;32927;-73
2024/01/15 11:21:17;;;;;;;13.48;8.27;;;;;;;3.35;87.51;98871.59;5608440;31;35327;-72
2024/01/15 11:24:37;;;;;;;15.48;8.25;;;;;;;3.42;85.00;98878.69;5608953;31;34422;-70
2024/01/15 11:27:44;;;;;;;;;;;;;;;3.54;84.25;98850.37;5609193;31;35910;-71
2024/01/15 11:30:47;;;;;;;12.25;8.18;;;;;;;3.54;84.29;98852.97;5609122;31;34608;-72
2024/01/15 11:33:50;;;;;;;11.25;7.65;;;;;;;3.57;83.55;98852.69;5609072;31;34358;-71
2024/01/15 11:37:03;;;;;;;13.00;7.97;;;;;;;3.81;81.07;98871.09;5608903;31;34331;-70
2024/01/15 11:40:11;;;;;;;;;;;;;;;3.86;80.25;98853.06;5609134;31;35090;-72
2024/01/15 11:43:17;;;;;;;14.23;7.80;;;;;;;4.06;79.83;98853.56;5608653;31;34523;-71
2024/01/15 11:46:20;;;;;;;12.40;7.00;;;;;;;4.11;78.57;98848.66;5608789;31;34411;-72
2024/01/15 11:49:43;;;;;;;16.70;6.60;;;;;;;4.09;77.40;98868.97;5608574;31;34456;-72
2024/01/15 11:52:57;;;;;;;12.80;7.03;;;;;;;4.20;76.71;98854.72;5598177;31;35078;-72
2024/01/15 11:56:02;;;;;;;14.40;6.40;;;;;;;4.14;78.02;98840.44;5608473;31;34353;-72
2024/01/15 11:59:06;;;;;;;11.00;6.22;;;;;;;4.16;76.45;98816.66;5608392;31;35063;-71
2024/01/15 12:02:22;;;;;;;12.50;6.40;;;;;;;4.09;77.39;98813.03;5608564;31;34943;-72
2024/01/15 12:05:25;;;;;;;12.05;6.60;;;;;;;4.11;77.07;98824.22;5607865;31;34261;-73
2024/01/15 12:08:28;;;;;;;10.88;6.18;;;;;;;4.00;78.66;98830.59;5594748;31;34284;-72
2024/01/15 12:11:34;;;;;;;24.05;6.32;;;;;;;3.97;77.68;98832.75;5608540;31;34425;-72
2024/01/15 12:14:38;;;;;;;13.73;6.35;;;;;;;3.75;76.64;98807.97;5608378;31;34933;-71
2024/01/15 12:17:41;;;;;;;14.73;6.00;;;;;;;3.97;74.90;98825.66;5608324;31;34626;-71
2024/01/15 12:20:48;;;;;;;9.60;6.20;;;;;;;4.31;72.51;98828.09;5608484;31;35827;-71
2024/01/15 12:23:54;;;;;;;14.73;6.20;;;;;;;4.50;71.42;98819.91;5608815;31;35922;-72
2024/01/15 12:26:57;;;;;;;13.68;6.35;;;;;;;4.45;70.75;98821.38;5608244;31;34317;-73
2024/01/15 12:30:01;;;;;;;11.25;6.70;;;;;;;4.20;71.82;98829.28;5608336;31;34283;-73
2024/01/15 12:33:05;;;;;;;14.50;6.87;;;;;;;4.40;70.94;98803.50;5608753;31;35120;-72
2024/01/15 12:36:12;;;;;;;11.98;6.47;;;;;;;4.23;72.06;98781.72;5607379;31;34256;-73
2024/01/15 12:39:15;;;;;;;13.10;6.22;;;;;;;4.27;71.61;98784.81;5607875;31;34932;-72
2024/01/15 12:42:18;;;;;;;9.07;6.03;;;;;;;4.25;71.64;98773.69;5608207;31;34385;-73
2024/01/15 12:45:21;;;;;;;11.52;6.07;;;;;;;4.35;72.75;98787.44;5608088;31;34311;-72
2024/01/15 12:48:28;;;;;;;14.68;6.20;;;;;;;4.56;71.56;98795.56;5608008;31;34450;-75
2024/01/15 12:51:34;;;;;;;11.40;6.28;;;;;;;4.51;71.39;98783.94;5607881;31;34445;-72
2024/01/15 12:54:37;;;;;;;11.00;5.90;;;;;;;4.84;70.28;98784.69;5607701;31;34348;-73
2024/01/15 12:57:40;;;;;;;19.05;10.75;;;;;;;4.89;69.54;98787.63;5607702;31;35020;-71
2024/01/15 13:00:43;;;;;;;17.23;5.80;;;;;;;4.78;69.40;98784.38;5607456;31;34397;-72
2024/01/15 13:03:46;;;;;;;11.40;5.65;;;;;;;4.63;69.81;98778.19;5607724;31;35324;-71
2024/01/15 13:06:50;;;;;;;10.60;5.62;;;;;;;4.55;70.10;98780.00;5607656;31;35074;-73
2024/01/15 13:09:53;;;;;;;10.00;5.37;;;;;;;4.35;71.39;98774.31;5607875;31;35956;-72
2024/01/15 13:12:57;;;;;;;11.40;5.45;;;;;;;4.52;70.53;98786.41;5607929;31;34283;-72
2024/01/15 13:16:00;;;;;;;8.90;5.72;;;;;;;4.23;71.76;98789.59;5607469;31;34303;-73
2024/01/15 13:19:03;;;;;;;8.98;5.80;;;;;;;4.16;71.88;98787.78;5607285;31;34889;-72
2024/01/15 13:22:09;;;;;;;13.00;6.05;;;;;;;3.99;73.75;98794.03;5607270;31;34336;-72
2024/01/15 13:25:12;;;;;;;10.85;5.80;;;;;;;3.85;75.00;98791.09;5606906;31;35376;-72
2024/01/15 13:28:16;;;;;;;10.02;6.05;;;;;;;3.83;77.00;98779.91;5607396;31;34445;-71
2024/01/15 13:31:19;;;;;;;11.10;6.53;;;;;;;3.74;76.56;98777.47;5606518;31;34364;-70
2024/01/15 13:34:22;;;;;;;10.35;6.20;;;;;;;3.76;77.16;98783.38;5606436;31;34484;-72
2024/01/15 13:37:26;;;;;;;11.55;5.95;;;;;;;3.75;76.97;98779.94;5607125;31;34413;-71
2024/01/15 13:40:29;;;;;;;10.25;6.25;;;;;;;3.69;77.91;98795.50;5606990;31;34319;-70
2024/01/15 13:43:32;;;;;;;11.95;6.07;;;;;;;3.69;77.04;98803.34;5606886;31;34956;-71
2024/01/15 13:46:35;;;;;;;16.62;6.25;;;;;;;3.65;77.69;98797.63;5606914;31;35284;-70
2024/01/15 13:49:38;;;;;;;11.00;6.10;;;;;;;3.62;79.18;98792.72;5606422;31;34390;-70
2024/01/15 13:52:41;;;;;;;10.85;6.10;;;;;;;3.63;80.80;98796.94;5605976;31;34361;-71
2024/01/15 13:55:45;;;;;;;8.10;5.10;;;;;;;3.61;80.21;98792.88;5606869;31;34383;-71
2024/01/15 13:58:48;;;;;;;10.43;5.60;;;;;;;3.65;77.94;98792.38;5606994;31;34483;-70
2024/01/15 14:01:51;;;;;;;14.77;5.95;;;;;;;3.61;79.32;98793.69;5606536;31;34416;-71
2024/01/15 14:04:54;;;;;;;9.02;5.72;;;;;;;3.67;79.67;98795.66;5607865;31;34693;-70